Terminal Aerodrome Forecast
Issued by NWS

Home | Current Version | Previous Version | Text Only | Print | Product List | Glossary On
Versions: 1 2 3 4 5 6 7 8 9 10 11 12 13 14
910
FTPA31 PHFO 250534
TAFHJR
TAF
PHJR 250534Z 2506/2606 VRB06KT P6SM FEW030 SCT040
     FM252000 09008KT P6SM FEW030 SCT050
     FM260400 05005KT P6SM VCSH FEW025 BKN050=

USA.gov is the U.S. government's official web portal to all federal, state and local government web resources and services.